createdAt,value
2019-04-03T00:01:18.265Z,9.10
2019-04-03T00:03:47.685Z,9.00
2019-04-03T00:06:17.019Z,8.80
2019-04-03T00:08:46.273Z,8.70
2019-04-03T00:11:15.547Z,8.60
2019-04-03T00:13:44.852Z,8.50
2019-04-03T00:16:33.302Z,8.50
2019-04-03T00:19:02.604Z,8.40
2019-04-03T00:21:32.245Z,8.30
2019-04-03T00:24:01.502Z,8.30
2019-04-03T00:26:31.118Z,8.20
2019-04-03T00:29:22.036Z,8.20
2019-04-03T00:31:53.066Z,8.20
2019-04-03T00:34:23.521Z,8.20
2019-04-03T00:36:53.187Z,8.20
2019-04-03T00:39:24.421Z,8.10
2019-04-03T00:41:54.792Z,8.10
2019-04-03T00:44:24.839Z,8.10
2019-04-03T00:46:55.595Z,8.10
2019-04-03T00:49:26.070Z,8.10
2019-04-03T00:51:57.469Z,8.00
2019-04-03T00:54:27.192Z,7.90
2019-04-03T00:56:56.888Z,7.80
2019-04-03T00:59:26.841Z,7.80
2019-04-03T01:01:56.500Z,7.80
2019-04-03T01:04:28.231Z,7.80
2019-04-03T01:06:58.618Z,7.70
2019-04-03T01:09:29.778Z,7.80
2019-04-03T01:12:00.866Z,7.80
2019-04-03T01:14:49.727Z,7.80
2019-04-03T01:17:19.065Z,7.90
2019-04-03T01:19:48.324Z,8.00
2019-04-03T01:22:17.738Z,8.00
2019-04-03T01:24:47.013Z,8.10
2019-04-03T01:27:16.830Z,8.10
2019-04-03T01:29:46.399Z,8.20
2019-04-03T01:32:16.200Z,8.20
2019-04-03T01:34:47.330Z,8.20
2019-04-03T01:37:16.802Z,8.20
2019-04-03T01:39:50.332Z,8.10
2019-04-03T01:42:21.483Z,8.10
2019-04-03T01:44:49.712Z,8.10
2019-04-03T01:47:18.995Z,8.00
2019-04-03T01:49:48.328Z,8.00
2019-04-03T01:52:17.562Z,7.90
2019-04-03T01:54:46.991Z,7.90
2019-04-03T01:57:16.584Z,8.00
2019-04-03T01:59:45.902Z,8.00
2019-04-03T02:02:15.153Z,8.10
2019-04-03T02:04:44.821Z,8.10
2019-04-03T02:07:15.109Z,8.10
2019-04-03T02:10:03.615Z,8.00
2019-04-03T02:12:33.074Z,8.10
2019-04-03T02:15:02.359Z,8.00
2019-04-03T02:17:32.247Z,8.00
2019-04-03T02:20:21.208Z,7.90
2019-04-03T02:22:51.407Z,7.90
2019-04-03T02:25:20.699Z,7.80
2019-04-03T02:27:50.162Z,7.80
2019-04-03T02:30:19.882Z,7.70
2019-04-03T02:32:49.210Z,7.70
2019-04-03T02:35:18.513Z,7.60
2019-04-03T02:37:49.720Z,7.60
2019-04-03T02:40:19.051Z,7.50
2019-04-03T02:42:48.450Z,7.50
2019-04-03T02:45:18.097Z,7.40
2019-04-03T02:47:47.579Z,7.30
2019-04-03T02:50:23.646Z,7.20
2019-04-03T02:52:56.896Z,7.10
2019-04-03T02:55:24.871Z,7.10
2019-04-03T02:57:54.309Z,7.00
2019-04-03T03:00:23.797Z,6.90
2019-04-03T03:02:53.432Z,6.90
2019-04-03T03:05:26.486Z,6.80
2019-04-03T03:07:53.689Z,6.80
2019-04-03T03:10:22.950Z,6.70
2019-04-03T03:12:52.647Z,6.70
2019-04-03T03:15:21.912Z,6.70
2019-04-03T03:17:54.418Z,6.70
2019-04-03T03:20:23.839Z,6.70
2019-04-03T03:22:53.133Z,6.70
2019-04-03T03:25:22.864Z,6.70
2019-04-03T03:27:52.200Z,6.70
2019-04-03T03:30:38.664Z,6.70
2019-04-03T03:33:19.298Z,6.70
2019-04-03T03:35:29.516Z,6.70
2019-04-03T03:37:54.642Z,6.70
2019-04-03T03:40:24.263Z,6.70
2019-04-03T03:42:53.896Z,6.70
2019-04-03T03:45:23.214Z,6.70
2019-04-03T03:47:53.242Z,6.70
2019-04-03T03:50:25.850Z,6.70
2019-04-03T03:52:59.376Z,6.80
2019-04-03T03:55:29.780Z,6.80
2019-04-03T03:57:59.190Z,6.80
2019-04-03T04:00:28.491Z,6.80
2019-04-03T04:02:58.732Z,6.70
2019-04-03T04:05:28.383Z,6.70
2019-04-03T04:07:58.079Z,6.70
2019-04-03T04:10:28.665Z,6.60
2019-04-03T04:12:58.364Z,6.50
2019-04-03T04:15:30.260Z,6.50
2019-04-03T04:17:58.645Z,6.50
2019-04-03T04:20:28.887Z,6.40
2019-04-03T04:22:58.470Z,6.40
2019-04-03T04:25:28.317Z,6.40
2019-04-03T04:27:59.240Z,6.40
2019-04-03T04:30:28.540Z,6.40
2019-04-03T04:32:57.908Z,6.40
2019-04-03T04:35:27.364Z,6.30
2019-04-03T04:37:56.785Z,6.30
2019-04-03T04:40:45.215Z,6.20
2019-04-03T04:43:14.906Z,6.20
2019-04-03T04:45:44.362Z,6.10
2019-04-03T04:48:16.295Z,6.10
2019-04-03T04:50:44.726Z,6.10
2019-04-03T04:53:14.024Z,6.10
2019-04-03T04:55:43.657Z,6.00
2019-04-03T04:58:13.471Z,6.00
2019-04-03T05:00:43.019Z,6.00
2019-04-03T05:03:12.524Z,6.00
2019-04-03T05:05:42.451Z,6.00
2019-04-03T05:08:12.792Z,6.00
2019-04-03T05:10:42.088Z,6.00
2019-04-03T05:13:11.358Z,6.00
2019-04-03T05:15:40.664Z,6.00
2019-04-03T05:18:10.445Z,6.00
2019-04-03T05:20:39.729Z,6.00
2019-04-03T05:23:09.527Z,6.00
2019-04-03T05:25:38.867Z,6.00
2019-04-03T05:28:08.138Z,6.10
2019-04-03T05:30:38.031Z,6.10
2019-04-03T05:33:07.586Z,6.10
2019-04-03T05:35:38.350Z,6.10
2019-04-03T05:38:07.752Z,6.10
2019-04-03T05:40:37.223Z,6.20
2019-04-03T05:43:06.507Z,6.20
2019-04-03T05:45:36.132Z,6.20
2019-04-03T05:48:06.101Z,6.20
2019-04-03T05:50:37.053Z,6.30
2019-04-03T05:53:06.991Z,6.30
2019-04-03T05:55:36.422Z,6.30
2019-04-03T05:58:05.686Z,6.40
2019-04-03T06:00:37.509Z,6.40
2019-04-03T06:03:06.249Z,6.40
2019-04-03T06:05:35.560Z,6.50
2019-04-03T06:08:04.866Z,6.50
2019-04-03T06:10:36.558Z,6.60
2019-04-03T06:13:06.168Z,6.60
2019-04-03T06:15:35.697Z,6.70
2019-04-03T06:18:05.096Z,6.70
2019-04-03T06:20:34.335Z,6.80
2019-04-03T06:23:03.627Z,6.80
2019-04-03T06:25:32.982Z,6.90
2019-04-03T06:28:02.268Z,7.00
2019-04-03T06:30:31.653Z,7.10
2019-04-03T06:33:02.161Z,7.10
2019-04-03T06:35:34.619Z,7.20
2019-04-03T06:38:02.550Z,7.20
2019-04-03T06:40:35.158Z,7.30
2019-04-03T06:43:03.226Z,7.30
2019-04-03T06:45:32.830Z,7.40
2019-04-03T06:48:04.264Z,7.40
2019-04-03T06:50:33.055Z,7.50
2019-04-03T06:53:02.490Z,7.50
2019-04-03T06:55:33.193Z,7.60
2019-04-03T06:58:03.169Z,7.70
2019-04-03T07:00:32.522Z,7.70
2019-04-03T07:03:03.881Z,7.90
2019-04-03T07:05:32.679Z,7.90
2019-04-03T07:08:04.423Z,8.00
2019-04-03T07:10:32.873Z,8.10
2019-04-03T07:13:02.181Z,8.20
2019-04-03T07:15:31.463Z,8.30
2019-04-03T07:18:01.891Z,8.40
2019-04-03T07:20:32.210Z,8.50
2019-04-03T07:23:01.571Z,8.60
2019-04-03T07:25:31.939Z,8.70
2019-04-03T07:28:02.519Z,8.80
2019-04-03T07:30:32.143Z,8.90
2019-04-03T07:33:01.847Z,9.00
2019-04-03T07:35:31.603Z,9.10
2019-04-03T07:38:03.829Z,9.10
2019-04-03T07:40:33.302Z,9.20
2019-04-03T07:43:02.551Z,9.30
2019-04-03T07:45:32.962Z,9.50
2019-04-03T07:48:06.128Z,9.60
2019-04-03T07:50:36.095Z,9.70
2019-04-03T07:53:04.613Z,9.90
2019-04-03T07:55:34.515Z,10.10
2019-04-03T07:58:03.934Z,10.20
2019-04-03T08:00:33.771Z,10.30
2019-04-03T08:03:04.647Z,10.50
2019-04-03T08:05:34.758Z,10.60
2019-04-03T08:08:07.318Z,10.60
2019-04-03T08:10:37.962Z,10.80
2019-04-03T08:13:08.147Z,10.80
2019-04-03T08:15:37.513Z,10.90
2019-04-03T08:18:08.361Z,10.90
2019-04-03T08:20:39.645Z,11.00
2019-04-03T08:23:09.875Z,11.00
2019-04-03T08:25:42.356Z,11.10
2019-04-03T08:28:11.919Z,11.20
2019-04-03T08:30:41.215Z,11.20
2019-04-03T08:33:17.851Z,11.30
2019-04-03T08:35:41.521Z,11.40
2019-04-03T08:38:12.565Z,11.50
2019-04-03T08:40:41.893Z,11.50
2019-04-03T08:43:11.197Z,11.60
2019-04-03T08:45:41.262Z,11.60
2019-04-03T08:48:10.650Z,11.70
2019-04-03T08:50:39.975Z,11.70
2019-04-03T08:53:09.315Z,11.80
2019-04-03T08:55:39.026Z,11.80
2019-04-03T08:58:08.939Z,11.80
2019-04-03T09:00:38.492Z,11.90
2019-04-03T09:03:07.801Z,11.90
2019-04-03T09:05:43.084Z,12.00
2019-04-03T09:08:12.466Z,12.20
2019-04-03T09:10:41.805Z,12.20
2019-04-03T09:13:17.683Z,12.40
2019-04-03T09:15:43.220Z,12.40
2019-04-03T09:18:12.959Z,12.50
2019-04-03T09:20:43.381Z,12.60
2019-04-03T09:23:13.576Z,12.70
2019-04-03T09:25:43.320Z,12.80
2019-04-03T09:28:12.667Z,12.90
2019-04-03T09:30:41.878Z,13.00
2019-04-03T09:33:11.323Z,13.10
2019-04-03T09:35:42.784Z,13.20
2019-04-03T09:38:12.397Z,13.20
2019-04-03T09:40:41.675Z,13.30
2019-04-03T09:43:10.978Z,13.30
2019-04-03T09:45:40.261Z,13.30
2019-04-03T09:48:11.644Z,13.40
2019-04-03T09:50:41.129Z,13.40
2019-04-03T09:53:10.534Z,13.40
2019-04-03T09:55:40.109Z,13.50
2019-04-03T09:58:09.530Z,13.50
2019-04-03T10:00:41.252Z,13.60
2019-04-03T10:03:10.142Z,13.60
2019-04-03T10:05:39.492Z,13.50
2019-04-03T10:08:09.181Z,13.50
2019-04-03T10:10:39.108Z,13.50
2019-04-03T10:13:08.473Z,13.50
2019-04-03T10:15:37.755Z,13.60
2019-04-03T10:18:09.544Z,13.60
2019-04-03T10:20:38.158Z,13.70
2019-04-03T10:23:07.579Z,13.80
2019-04-03T10:25:38.015Z,13.90
2019-04-03T10:28:08.041Z,13.90
2019-04-03T10:30:37.496Z,14.00
2019-04-03T10:33:06.769Z,14.00
2019-04-03T10:35:38.671Z,14.00
2019-04-03T10:38:07.788Z,14.10
2019-04-03T10:40:37.521Z,14.10
2019-04-03T10:43:06.931Z,14.10
2019-04-03T10:45:36.956Z,14.10
2019-04-03T10:48:06.435Z,14.10
2019-04-03T10:50:37.537Z,14.10
2019-04-03T10:53:06.702Z,14.20
2019-04-03T10:55:35.977Z,14.20
2019-04-03T10:58:07.295Z,14.20
2019-04-03T11:00:36.367Z,14.20
2019-04-03T11:03:05.692Z,14.20
2019-04-03T11:05:34.959Z,14.20
2019-04-03T11:08:04.752Z,14.20
2019-04-03T11:10:34.510Z,14.20
2019-04-03T11:13:03.930Z,14.10
2019-04-03T11:15:33.685Z,14.10
2019-04-03T11:18:03.334Z,14.30
2019-04-03T11:20:32.871Z,14.70
2019-04-03T11:23:06.808Z,15.20
2019-04-03T11:25:34.588Z,15.50
2019-04-03T11:28:05.490Z,15.50
2019-04-03T11:30:35.131Z,15.30
2019-04-03T11:33:04.840Z,15.20
2019-04-03T11:35:34.465Z,15.10
2019-04-03T11:38:12.716Z,15.10
2019-04-03T11:40:35.096Z,15.20
2019-04-03T11:43:04.564Z,15.40
2019-04-03T11:45:34.228Z,15.80
2019-04-03T11:48:03.710Z,16.30
2019-04-03T11:50:33.233Z,16.70
2019-04-03T11:53:06.091Z,17.20
2019-04-03T11:55:34.371Z,17.50
2019-04-03T11:58:04.652Z,17.40
2019-04-03T12:00:38.018Z,17.30
2019-04-03T12:03:10.821Z,17.10
2019-04-03T12:05:39.383Z,16.80
2019-04-03T12:08:11.908Z,16.50
2019-04-03T12:10:40.067Z,16.40
2019-04-03T12:13:12.384Z,16.10
2019-04-03T12:15:40.311Z,15.90
2019-04-03T12:18:09.627Z,15.80
2019-04-03T12:20:43.750Z,15.70
2019-04-03T12:23:11.740Z,15.70
2019-04-03T12:25:41.481Z,15.60
2019-04-03T12:28:10.981Z,15.60
2019-04-03T12:30:40.781Z,15.60
2019-04-03T12:33:11.172Z,15.60
2019-04-03T12:35:42.766Z,15.60
2019-04-03T12:38:12.518Z,15.80
2019-04-03T12:40:42.221Z,16.10
2019-04-03T12:43:12.392Z,16.50
2019-04-03T12:45:42.494Z,16.80
2019-04-03T12:48:12.398Z,16.80
2019-04-03T12:50:42.880Z,16.90
2019-04-03T12:53:12.173Z,16.90
2019-04-03T12:55:42.515Z,17.00
2019-04-03T12:58:12.314Z,17.10
2019-04-03T13:00:41.748Z,17.20
2019-04-03T13:03:11.083Z,17.20
2019-04-03T13:05:40.720Z,17.10
2019-04-03T13:08:10.396Z,16.80
2019-04-03T13:10:43.165Z,16.60
2019-04-03T13:13:11.333Z,16.50
2019-04-03T13:15:40.807Z,16.40
2019-04-03T13:18:10.214Z,16.40
2019-04-03T13:20:39.777Z,16.20
2019-04-03T13:23:09.216Z,16.10
2019-04-03T13:25:38.776Z,16.00
2019-04-03T13:28:08.248Z,15.80
2019-04-03T13:30:37.971Z,15.70
2019-04-03T13:33:07.933Z,15.60
2019-04-03T13:35:37.728Z,15.60
2019-04-03T13:38:07.272Z,15.60
2019-04-03T13:40:38.414Z,15.50
2019-04-03T13:43:07.625Z,15.40
2019-04-03T13:45:37.281Z,15.40
2019-04-03T13:48:06.587Z,15.40
2019-04-03T13:50:35.987Z,15.30
2019-04-03T13:53:05.359Z,15.40
2019-04-03T13:55:36.610Z,15.30
2019-04-03T13:58:05.794Z,15.40
2019-04-03T14:00:35.442Z,15.50
2019-04-03T14:03:04.992Z,15.50
2019-04-03T14:05:35.396Z,15.60
2019-04-03T14:08:06.779Z,15.70
2019-04-03T14:10:36.213Z,15.70
2019-04-03T14:13:05.855Z,15.70
2019-04-03T14:15:35.627Z,15.70
2019-04-03T14:18:07.399Z,15.60
2019-04-03T14:20:36.540Z,15.60
2019-04-03T14:23:06.571Z,15.60
2019-04-03T14:25:37.980Z,15.50
2019-04-03T14:28:07.227Z,15.40
2019-04-03T14:30:37.179Z,15.40
2019-04-03T14:33:07.094Z,15.30
2019-04-03T14:35:49.410Z,15.20
2019-04-03T14:38:08.043Z,15.10
2019-04-03T14:40:37.379Z,15.10
2019-04-03T14:43:07.223Z,15.00
2019-04-03T14:45:38.789Z,15.00
2019-04-03T14:48:08.524Z,15.10
2019-04-03T14:50:38.976Z,15.10
2019-04-03T14:53:08.379Z,15.10
2019-04-03T14:55:47.060Z,15.10
2019-04-03T14:58:08.831Z,15.10
2019-04-03T15:00:39.022Z,15.10
2019-04-03T15:03:08.415Z,15.30
2019-04-03T15:05:40.334Z,15.50
2019-04-03T15:08:09.351Z,15.80
2019-04-03T15:10:39.312Z,16.20
2019-04-03T15:13:10.875Z,16.60
2019-04-03T15:15:40.231Z,17.20
2019-04-03T15:18:10.764Z,17.50
2019-04-03T15:20:41.266Z,17.70
2019-04-03T15:23:11.014Z,18.00
2019-04-03T15:25:42.616Z,18.20
2019-04-03T15:28:11.828Z,18.40
2019-04-03T15:30:43.065Z,18.70
2019-04-03T15:33:12.877Z,19.00
2019-04-03T15:35:42.516Z,19.50
2019-04-03T15:38:13.288Z,20.10
2019-04-03T15:40:43.533Z,20.50
2019-04-03T15:43:15.993Z,20.90
2019-04-03T15:45:44.337Z,21.10
2019-04-03T15:48:14.017Z,21.00
2019-04-03T15:50:43.309Z,20.80
2019-04-03T15:53:12.966Z,21.10
2019-04-03T15:55:42.495Z,21.50
2019-04-03T15:58:12.122Z,21.80
2019-04-03T16:00:43.192Z,22.10
2019-04-03T16:03:12.371Z,22.30
2019-04-03T16:05:42.173Z,22.60
2019-04-03T16:08:12.411Z,22.40
2019-04-03T16:10:42.566Z,21.80
2019-04-03T16:13:15.514Z,20.90
2019-04-03T16:15:44.633Z,20.00
2019-04-03T16:18:14.059Z,19.20
2019-04-03T16:20:43.719Z,18.50
2019-04-03T16:23:12.986Z,17.90
2019-04-03T16:25:42.791Z,17.30
2019-04-03T16:28:13.631Z,16.80
2019-04-03T16:30:43.059Z,16.40
2019-04-03T16:33:19.934Z,16.10
2019-04-03T16:35:45.889Z,15.80
2019-04-03T16:38:15.527Z,15.60
2019-04-03T16:40:46.601Z,15.50
2019-04-03T16:43:15.864Z,15.30
2019-04-03T16:45:45.166Z,15.10
2019-04-03T16:48:16.886Z,14.90
2019-04-03T16:50:46.319Z,14.70
2019-04-03T16:53:16.127Z,14.60
2019-04-03T16:55:46.719Z,14.50
2019-04-03T16:58:17.438Z,14.40
2019-04-03T17:00:46.971Z,14.30
2019-04-03T17:03:16.407Z,14.20
2019-04-03T17:05:46.099Z,14.10
2019-04-03T17:08:15.907Z,14.00
2019-04-03T17:10:45.699Z,13.90
2019-04-03T17:13:15.122Z,13.80
2019-04-03T17:15:44.474Z,13.70
2019-04-03T17:18:16.360Z,13.60
2019-04-03T17:20:45.255Z,13.50
2019-04-03T17:23:14.542Z,13.40
2019-04-03T17:25:49.069Z,13.30
2019-04-03T17:28:15.486Z,13.20
2019-04-03T17:30:45.161Z,13.10
2019-04-03T17:33:14.490Z,13.00
2019-04-03T17:35:46.050Z,12.90
2019-04-03T17:38:15.058Z,12.90
2019-04-03T17:40:44.345Z,12.80
2019-04-03T17:43:15.557Z,12.70
2019-04-03T17:45:46.129Z,12.50
2019-04-03T17:48:15.630Z,12.20
2019-04-03T17:50:45.475Z,12.10
2019-04-03T17:53:15.180Z,11.90
2019-04-03T17:55:45.471Z,11.70
2019-04-03T17:58:16.839Z,11.50
2019-04-03T18:00:46.145Z,11.30
2019-04-03T18:03:15.442Z,11.20
2019-04-03T18:05:45.166Z,11.00
2019-04-03T18:08:14.671Z,10.80
2019-04-03T18:10:44.475Z,10.70
2019-04-03T18:13:14.070Z,10.50
2019-04-03T18:15:43.722Z,10.40
2019-04-03T18:18:13.165Z,10.30
2019-04-03T18:20:44.347Z,10.20
2019-04-03T18:23:14.286Z,10.10
2019-04-03T18:25:44.462Z,10.10
2019-04-03T18:28:13.799Z,10.00
2019-04-03T18:30:44.534Z,9.90
2019-04-03T18:33:16.765Z,9.80
2019-04-03T18:35:44.816Z,9.80
2019-04-03T18:38:14.561Z,9.70
2019-04-03T18:40:46.416Z,9.70
2019-04-03T18:43:15.619Z,9.70
2019-04-03T18:45:44.931Z,9.60
2019-04-03T18:48:16.277Z,9.60
2019-04-03T18:50:45.613Z,9.60
2019-04-03T18:53:15.293Z,9.60
2019-04-03T18:55:45.609Z,9.50
2019-04-03T18:58:15.228Z,9.50
2019-04-03T19:00:44.546Z,9.50
2019-04-03T19:03:14.697Z,9.50
2019-04-03T19:05:44.477Z,9.50
2019-04-03T19:08:17.798Z,9.50
2019-04-03T19:10:45.951Z,9.40
2019-04-03T19:13:15.359Z,9.40
2019-04-03T19:15:44.709Z,9.30
2019-04-03T19:18:19.771Z,9.30
2019-04-03T19:20:45.371Z,9.30
2019-04-03T19:23:15.363Z,9.30
2019-04-03T19:25:45.186Z,9.20
2019-04-03T19:28:15.186Z,9.20
2019-04-03T19:30:44.988Z,9.10
2019-04-03T19:33:15.049Z,9.10
2019-04-03T19:35:44.705Z,9.10
2019-04-03T19:38:14.494Z,8.90
2019-04-03T19:40:43.838Z,8.90
2019-04-03T19:43:14.542Z,8.80
2019-04-03T19:45:44.125Z,8.70
2019-04-03T19:48:13.543Z,8.70
2019-04-03T19:50:43.347Z,8.60
2019-04-03T19:53:13.447Z,8.60
2019-04-03T19:55:44.056Z,8.60
2019-04-03T19:58:13.533Z,8.50
2019-04-03T20:00:42.851Z,8.50
2019-04-03T20:03:14.095Z,8.40
2019-04-03T20:05:43.991Z,8.40
2019-04-03T20:08:14.008Z,8.30
2019-04-03T20:10:43.368Z,8.30
2019-04-03T20:13:12.670Z,8.20
2019-04-03T20:15:42.182Z,8.20
2019-04-03T20:18:11.550Z,8.10
2019-04-03T20:20:40.956Z,8.10
2019-04-03T20:23:10.724Z,8.00
2019-04-03T20:25:40.936Z,7.90
2019-04-03T20:28:10.506Z,7.90
2019-04-03T20:30:40.294Z,7.80
2019-04-03T20:33:11.400Z,7.80
2019-04-03T20:35:40.918Z,7.70
2019-04-03T20:38:10.186Z,7.60
2019-04-03T20:40:39.924Z,7.60
2019-04-03T20:43:11.859Z,7.60
2019-04-03T20:45:40.781Z,7.60
2019-04-03T20:48:10.072Z,7.50
2019-04-03T20:50:39.360Z,7.50
2019-04-03T20:53:08.639Z,7.40
2019-04-03T20:55:37.952Z,7.40
2019-04-03T20:58:07.269Z,7.40
2019-04-03T21:00:36.568Z,7.30
2019-04-03T21:03:05.846Z,7.30
2019-04-03T21:05:35.335Z,7.20
2019-04-03T21:08:05.116Z,7.20
2019-04-03T21:10:34.822Z,7.20
2019-04-03T21:13:04.277Z,7.20
2019-04-03T21:15:34.397Z,7.20
2019-04-03T21:18:04.142Z,7.20
2019-04-03T21:20:33.708Z,7.20
2019-04-03T21:23:04.263Z,7.10
2019-04-03T21:25:35.971Z,7.10
2019-04-03T21:28:05.358Z,7.10
2019-04-03T21:30:34.650Z,7.10
2019-04-03T21:33:03.969Z,7.00
2019-04-03T21:35:35.207Z,7.00
2019-04-03T21:38:04.886Z,7.00
2019-04-03T21:40:34.237Z,6.90
2019-04-03T21:43:03.549Z,7.00
2019-04-03T21:45:32.843Z,6.90
2019-04-03T21:48:02.183Z,6.90
2019-04-03T21:50:31.459Z,7.00
2019-04-03T21:53:00.843Z,7.00
2019-04-03T21:55:30.963Z,7.00
2019-04-03T21:58:00.690Z,7.00
2019-04-03T22:01:17.365Z,7.00
2019-04-03T22:03:46.946Z,7.00
2019-04-03T22:06:16.325Z,7.20
2019-04-03T22:08:45.645Z,7.20
2019-04-03T22:11:15.275Z,7.40
2019-04-03T22:13:44.583Z,7.50
2019-04-03T22:16:13.870Z,7.60
2019-04-03T22:18:43.671Z,7.70
2019-04-03T22:21:12.946Z,7.80
2019-04-03T22:23:42.221Z,7.90
2019-04-03T22:26:11.521Z,8.00
2019-04-03T22:28:41.434Z,8.10
2019-04-03T22:31:11.096Z,8.10
2019-04-03T22:33:40.398Z,8.20
2019-04-03T22:36:09.716Z,8.30
2019-04-03T22:38:38.994Z,8.40
2019-04-03T22:41:08.473Z,8.50
2019-04-03T22:43:37.742Z,8.50
2019-04-03T22:46:07.046Z,8.40
2019-04-03T22:48:36.338Z,8.30
2019-04-03T22:51:06.876Z,8.30
2019-04-03T22:53:36.626Z,8.30
2019-04-03T22:56:05.937Z,8.30
2019-04-03T22:58:35.239Z,8.20
2019-04-03T23:01:04.623Z,8.20
2019-04-03T23:03:34.404Z,8.20
2019-04-03T23:06:03.971Z,8.10
2019-04-03T23:08:33.274Z,8.10
2019-04-03T23:11:02.584Z,8.00
2019-04-03T23:13:33.835Z,7.90
2019-04-03T23:16:03.714Z,7.90
2019-04-03T23:18:33.341Z,7.80
2019-04-03T23:21:02.727Z,7.70
2019-04-03T23:23:32.049Z,7.60
2019-04-03T23:26:01.440Z,7.50
2019-04-03T23:28:33.740Z,7.40
2019-04-03T23:31:01.751Z,7.40
2019-04-03T23:33:31.060Z,7.40
2019-04-03T23:36:00.978Z,7.30
2019-04-03T23:38:30.323Z,7.30
2019-04-03T23:40:59.638Z,7.20
2019-04-03T23:43:30.322Z,7.20
2019-04-03T23:45:59.725Z,7.20
2019-04-03T23:48:29.034Z,7.10
2019-04-03T23:50:58.790Z,7.10
2019-04-03T23:53:28.350Z,7.00
2019-04-03T23:55:57.646Z,6.90
2019-04-03T23:58:26.951Z,6.90
